Time;durP1;ratioP1;P1;durP2;ratioP2;P2;SDS_P1;SDS_P2;PMS_P1;PMS_P2;Temp;Humidity;BMP_temperature;BMP_pressure;BME280_temperature;BME280_humidity;BME280_pressure;Samples;Min_cycle;Max_cycle;Signal;HPM_P1;HPM_P2
2022/10/19 00:01:49;;;;;;;9.70;3.13;;;9.70;36.90;;;;;;5035554;28;20838;-78
2022/10/19 00:04:15;;;;;;;7.43;2.97;;;9.70;95.00;;;;;;5036409;28;20206;-78
2022/10/19 00:06:41;;;;;;;7.33;3.40;;;9.60;73.30;;;;;;5036385;28;20703;-78
2022/10/19 00:09:13;;;;;;;8.00;3.27;;;9.40;90.10;;;;;;5037058;28;20182;-78
2022/10/19 00:11:41;;;;;;;6.20;3.00;;;9.40;99.90;;;;;;5034374;28;20183;-77
2022/10/19 00:14:12;;;;;;;9.87;4.20;;;9.40;99.90;;;;;;5034929;28;20226;-78
2022/10/19 00:16:38;;;;;;;6.17;3.63;;;9.30;99.90;;;;;;5035698;28;20282;-78
2022/10/19 00:19:10;;;;;;;7.00;3.27;;;9.20;99.90;;;;;;5035613;28;20202;-78
2022/10/19 00:21:36;;;;;;;14.17;4.13;;;9.30;99.90;;;;;;5035668;28;20240;-78
2022/10/19 00:24:02;;;;;;;4.30;2.90;;;9.20;1.00;;;;;;5036325;28;20206;-78
2022/10/19 00:26:28;;;;;;;8.47;3.20;;;9.40;1.00;;;;;;5036211;28;20548;-78
2022/10/19 00:28:54;;;;;;;7.53;3.40;;;9.30;99.90;;;;;;5034954;28;20190;-78
2022/10/19 00:31:20;;;;;;;6.60;3.10;;;9.30;80.90;;;;;;5038286;28;20279;-78
2022/10/19 00:33:46;;;;;;;9.77;3.80;;;9.30;94.20;;;;;;5033991;28;20681;-79
2022/10/19 00:36:30;;;;;;;5.77;3.33;;;9.40;99.90;;;;;;5036611;28;20560;-77
2022/10/19 00:38:57;;;;;;;9.63;4.00;;;9.40;99.90;;;;;;5036175;28;20183;-78
2022/10/19 00:41:24;;;;;;;8.27;3.50;;;9.40;27.90;;;;;;5036946;28;20206;-78
2022/10/19 00:44:10;;;;;;;8.03;3.13;;;9.40;1.00;;;;;;5036438;28;20252;-78
2022/10/19 00:46:44;;;;;;;6.30;3.10;;;9.50;1.00;;;;;;5035214;28;20187;-78
2022/10/19 00:49:19;;;;;;;7.40;3.13;;;9.50;99.90;;;;;;5035551;28;20558;-78
2022/10/19 00:51:56;;;;;;;8.07;3.63;;;9.50;99.90;;;;;;5034456;28;20186;-77
2022/10/19 00:54:24;;;;;;;8.70;3.57;;;9.60;99.90;;;;;;5035968;28;20202;-78
2022/10/19 00:56:52;;;;;;;9.27;3.30;;;10.00;99.90;;;;;;5035920;28;20708;-78
2022/10/19 00:59:19;;;;;;;7.60;3.20;;;9.80;99.90;;;;;;5034502;28;20194;-78
2022/10/19 01:01:46;;;;;;;11.60;7.00;;;9.90;99.90;;;;;;5035231;28;20210;-78
2022/10/19 01:04:12;;;;;;;11.97;5.07;;;9.90;13.30;;;;;;5042288;28;20202;-78
2022/10/19 01:06:39;;;;;;;14.03;6.33;;;9.90;1.00;;;;;;5035141;28;20567;-78
2022/10/19 01:09:05;;;;;;;5.93;3.00;;;9.90;1.00;;;;;;5035066;28;20183;-78
2022/10/19 01:11:50;;;;;;;7.73;2.90;;;10.00;1.00;;;;;;5034557;28;20669;-78
2022/10/19 01:14:43;;;;;;;8.90;2.77;;;10.00;1.00;;;;;;5034349;28;20370;-79
2022/10/19 01:17:30;;;;;;;7.53;3.07;;;10.00;1.00;;;;;;5036106;28;20186;-78
2022/10/19 01:19:58;;;;;;;8.67;2.97;;;10.00;1.00;;;;;;5035554;28;20716;-78
2022/10/19 01:22:47;;;;;;;8.27;3.00;;;10.10;1.00;;;;;;5034137;28;20179;-78
2022/10/19 01:25:28;;;;;;;5.30;2.57;;;10.10;1.00;;;;;;5034337;28;20698;-78
2022/10/19 01:28:00;;;;;;;8.93;3.10;;;10.20;1.00;;;;;;5037234;28;20178;-79
2022/10/19 01:30:32;;;;;;;5.10;2.43;;;10.20;1.00;;;;;;5034333;28;20941;-78
2022/10/19 01:33:12;;;;;;;7.73;2.90;;;10.20;1.00;;;;;;5036866;28;20677;-79
2022/10/19 01:35:51;;;;;;;4.70;2.70;;;10.30;1.00;;;;;;5035248;28;20308;-79
2022/10/19 01:38:35;;;;;;;5.60;3.03;;;10.30;1.00;;;;;;5034760;28;21136;-78
2022/10/19 01:41:08;;;;;;;12.23;7.00;;;10.30;1.00;;;;;;5035486;28;20198;-79
2022/10/19 01:43:55;;;;;;;12.43;7.10;;;10.30;1.00;;;;;;5039293;28;20255;-78
2022/10/19 01:46:42;;;;;;;9.57;5.53;;;10.50;1.00;;;;;;5038115;28;20181;-77
2022/10/19 01:49:27;;;;;;;6.53;3.50;;;10.40;1.00;;;;;;5040297;28;20178;-77
2022/10/19 01:51:58;;;;;;;5.97;2.90;;;10.50;1.00;;;;;;5037969;28;20269;-78
2022/10/19 01:54:29;;;;;;;12.47;4.13;;;10.40;99.90;;;;;;5039377;28;20205;-78
2022/10/19 01:56:57;;;;;;;6.07;3.13;;;10.40;99.90;;;;;;5039955;28;20175;-78
2022/10/19 01:59:24;;;;;;;5.90;2.70;;;10.40;99.90;;;;;;5039516;28;20190;-79
2022/10/19 02:01:53;;;;;;;7.63;2.80;;;10.30;99.90;;;;;;5039228;28;20210;-78
2022/10/19 02:04:21;;;;;;;5.53;2.60;;;10.30;99.90;;;;;;5039399;28;20281;-78
2022/10/19 02:06:49;;;;;;;6.73;2.70;;;10.60;99.90;;;;;;5036041;28;20185;-78
2022/10/19 02:09:17;;;;;;;7.07;2.60;;;10.50;99.90;;;;;;5039849;28;20256;-78
2022/10/19 02:11:53;;;;;;;5.17;2.43;;;10.80;99.90;;;;;;5039229;28;20661;-79
2022/10/19 02:14:24;;;;;;;5.03;2.65;;;10.60;99.90;;;;;;5036998;28;20223;-77
2022/10/19 02:17:00;;;;;;;6.80;2.33;;;10.60;99.90;;;;;;5038382;28;20316;-78
2022/10/19 02:19:26;;;;;;;5.97;2.40;;;10.70;99.90;;;;;;5038375;28;20274;-78
2022/10/19 02:21:52;;;;;;;5.73;2.07;;;10.80;99.90;;;;;;5037363;28;20262;-79
2022/10/19 02:24:18;;;;;;;6.95;2.40;;;10.60;99.90;;;;;;5037909;28;20297;-79
2022/10/19 02:26:44;;;;;;;5.97;2.05;;;10.70;99.90;;;;;;5038437;28;20325;-79
2022/10/19 02:29:12;;;;;;;5.47;2.10;;;10.60;99.90;;;;;;5037596;28;20755;-77
2022/10/19 02:31:38;;;;;;;5.20;2.13;;;10.60;99.90;;;;;;5038225;28;20844;-77
2022/10/19 02:34:04;;;;;;;4.75;1.90;;;10.60;99.90;;;;;;5039126;28;20210;-77
2022/10/19 02:36:30;;;;;;;7.82;2.35;;;10.70;99.90;;;;;;5038688;28;20215;-78
2022/10/19 02:38:56;;;;;;;4.65;1.88;;;10.70;99.90;;;;;;5038816;28;20222;-78
2022/10/19 02:41:46;;;;;;;5.10;2.30;;;10.70;99.90;;;;;;5037911;28;20588;-79
2022/10/19 02:44:18;;;;;;;4.97;2.25;;;10.70;99.90;;;;;;5038986;28;20207;-78
2022/10/19 02:47:01;;;;;;;4.32;2.15;;;10.70;99.90;;;;;;5038174;28;20589;-78
2022/10/19 02:49:28;;;;;;;5.07;1.70;;;10.70;99.90;;;;;;5038673;28;20682;-78
2022/10/19 02:51:55;;;;;;;2.73;1.53;;;10.70;99.90;;;;;;5043734;28;20182;-78
2022/10/19 02:54:22;;;;;;;7.28;2.00;;;10.60;99.90;;;;;;5038457;28;20206;-77
2022/10/19 02:56:48;;;;;;;8.75;1.95;;;10.70;99.90;;;;;;5038891;28;20204;-78
2022/10/19 02:59:13;;;;;;;5.87;1.97;;;10.60;99.90;;;;;;5036862;28;20591;-79
2022/10/19 03:01:39;;;;;;;4.03;1.87;;;10.70;99.90;;;;;;5038101;28;20209;-77
2022/10/19 03:04:04;;;;;;;4.13;1.80;;;10.80;99.90;;;;;;5036710;28;21146;-77
2022/10/19 03:06:30;;;;;;;4.90;2.03;;;10.70;99.90;;;;;;5038537;28;20175;-77
2022/10/19 03:08:56;;;;;;;4.18;2.00;;;10.70;99.90;;;;;;5037543;28;20654;-78
2022/10/19 03:11:21;;;;;;;3.90;1.90;;;11.10;99.90;;;;;;5037031;28;20569;-78
2022/10/19 03:13:47;;;;;;;5.00;2.25;;;11.00;99.90;;;;;;5037624;28;20233;-78
2022/10/19 03:16:13;;;;;;;5.22;1.90;;;10.80;99.90;;;;;;5036468;28;20195;-78
2022/10/19 03:18:39;;;;;;;7.43;2.20;;;10.80;99.90;;;;;;5037427;28;20190;-78
2022/10/19 03:21:07;;;;;;;4.22;1.75;;;10.80;99.90;;;;;;5036984;28;20279;-79
2022/10/19 03:23:34;;;;;;;6.57;1.77;;;10.80;99.90;;;;;;5039027;28;20203;-78
2022/10/19 03:26:00;;;;;;;5.00;1.80;;;10.80;99.90;;;;;;5036781;28;20183;-79
2022/10/19 03:28:25;;;;;;;5.10;1.80;;;10.80;99.90;;;;;;5038091;28;20183;-78
2022/10/19 03:30:51;;;;;;;5.88;1.85;;;10.90;99.90;;;;;;5036921;28;20646;-78
2022/10/19 03:33:16;;;;;;;2.72;1.50;;;10.90;99.90;;;;;;5039175;28;20223;-78
2022/10/19 03:35:42;;;;;;;3.28;1.90;;;10.90;99.90;;;;;;5037195;28;20270;-78
2022/10/19 03:38:07;;;;;;;8.07;2.35;;;10.90;99.90;;;;;;5039302;28;20201;-79
2022/10/19 03:40:33;;;;;;;4.40;1.65;;;10.90;99.90;;;;;;5038404;28;20202;-78
2022/10/19 03:42:59;;;;;;;5.72;2.03;;;10.90;99.90;;;;;;5037354;28;20960;-79
2022/10/19 03:45:24;;;;;;;7.50;2.45;;;10.90;99.90;;;;;;5036342;28;20253;-78
2022/10/19 03:47:50;;;;;;;3.60;2.17;;;10.80;99.90;;;;;;5044334;28;20563;-77
2022/10/19 03:50:17;;;;;;;6.15;2.38;;;10.80;99.90;;;;;;5037328;28;20179;-78
2022/10/19 03:52:43;;;;;;;7.20;2.05;;;10.80;99.90;;;;;;5036716;28;20185;-78
2022/10/19 03:55:09;;;;;;;3.03;1.80;;;10.80;99.90;;;;;;5036121;28;20202;-78
2022/10/19 03:57:36;;;;;;;4.28;1.80;;;11.00;99.90;;;;;;5037180;28;20185;-77
2022/10/19 04:00:03;;;;;;;4.90;1.65;;;10.80;99.90;;;;;;5037472;28;20375;-78
2022/10/19 04:02:29;;;;;;;4.80;1.70;;;10.80;99.90;;;;;;5036877;28;20353;-78
2022/10/19 04:04:54;;;;;;;7.10;2.10;;;10.90;99.90;;;;;;5037063;28;21288;-79
2022/10/19 04:07:20;;;;;;;5.75;1.77;;;10.80;99.90;;;;;;5035907;28;20190;-78
2022/10/19 04:09:45;;;;;;;4.95;1.88;;;10.90;99.90;;;;;;5037655;28;20187;-78
2022/10/19 04:12:11;;;;;;;3.10;1.70;;;10.80;99.90;;;;;;5036200;28;20567;-79
2022/10/19 04:14:37;;;;;;;6.60;2.13;;;10.90;99.90;;;;;;5035395;28;20222;-78
2022/10/19 04:17:03;;;;;;;6.00;2.47;;;10.80;99.90;;;;;;5038229;28;20181;-78
2022/10/19 04:19:29;;;;;;;8.38;2.00;;;10.80;99.90;;;;;;5036215;28;20719;-79
2022/10/19 04:21:54;;;;;;;4.43;2.17;;;10.80;99.90;;;;;;5036248;28;20729;-77
2022/10/19 04:24:20;;;;;;;6.95;2.10;;;10.80;99.90;;;;;;5036682;28;20195;-79
2022/10/19 04:26:48;;;;;;;2.83;1.77;;;10.70;99.90;;;;;;5036382;28;20182;-78
2022/10/19 04:29:15;;;;;;;6.07;2.17;;;10.70;99.90;;;;;;5034968;28;20215;-77
2022/10/19 04:31:41;;;;;;;4.20;1.75;;;10.70;99.90;;;;;;5036992;28;20187;-79
2022/10/19 04:34:07;;;;;;;8.02;2.28;;;10.80;99.90;;;;;;5036592;28;20215;-79
2022/10/19 04:36:33;;;;;;;6.60;1.90;;;10.70;99.90;;;;;;5036155;28;20780;-78
2022/10/19 04:38:58;;;;;;;5.70;2.30;;;10.80;99.90;;;;;;5035733;28;20193;-77
2022/10/19 04:41:24;;;;;;;5.15;1.92;;;10.90;99.90;;;;;;5034895;28;20912;-78
2022/10/19 04:43:55;;;;;;;4.20;2.05;;;10.80;99.90;;;;;;5035762;28;20282;-78
2022/10/19 04:46:20;;;;;;;5.57;2.10;;;10.70;99.90;;;;;;5036127;28;20178;-78
2022/10/19 04:48:47;;;;;;;7.00;2.00;;;10.80;99.90;;;;;;5035570;28;20175;-79
2022/10/19 04:51:13;;;;;;;7.35;2.35;;;10.70;99.90;;;;;;5034332;28;20217;-79
2022/10/19 04:53:41;;;;;;;5.55;1.70;;;10.80;99.90;;;;;;5036503;28;20203;-77
2022/10/19 04:56:08;;;;;;;6.55;1.80;;;10.80;99.90;;;;;;5034565;28;20193;-77
2022/10/19 04:58:34;;;;;;;2.83;1.73;;;10.80;99.90;;;;;;5036710;28;20186;-79
2022/10/19 05:01:10;;;;;;;5.38;1.75;;;11.10;99.90;;;;;;5034861;28;21020;-78
2022/10/19 05:03:35;;;;;;;5.45;2.28;;;10.80;99.90;;;;;;5035700;28;20305;-77
2022/10/19 05:06:01;;;;;;;5.78;2.00;;;10.80;99.90;;;;;;5036056;28;20312;-78
2022/10/19 05:08:27;;;;;;;4.65;1.75;;;10.80;99.90;;;;;;5036046;28;20179;-78
2022/10/19 05:10:52;;;;;;;2.92;1.67;;;10.80;99.90;;;;;;5036709;28;20178;-78
2022/10/19 05:13:18;;;;;;;5.30;1.92;;;10.80;99.90;;;;;;5034074;28;20206;-79
2022/10/19 05:15:54;;;;;;;3.05;2.00;;;10.90;99.90;;;;;;5034231;28;20178;-79
2022/10/19 05:18:20;;;;;;;5.75;1.83;;;10.90;99.90;;;;;;5033385;28;20191;-77
2022/10/19 05:20:45;;;;;;;6.87;1.60;;;10.90;99.90;;;;;;5033815;28;20206;-79
2022/10/19 05:23:11;;;;;;;3.37;1.87;;;10.90;99.90;;;;;;5034000;28;20765;-77
2022/10/19 05:25:36;;;;;;;4.47;2.10;;;11.10;99.90;;;;;;5034658;28;20177;-79
2022/10/19 05:28:02;;;;;;;7.78;2.53;;;10.90;99.90;;;;;;5036382;28;20218;-77
2022/10/19 05:30:28;;;;;;;4.68;2.20;;;10.90;99.90;;;;;;5036548;28;20205;-78
2022/10/19 05:32:53;;;;;;;7.05;2.58;;;10.90;99.90;;;;;;5034380;28;20252;-79
2022/10/19 05:35:20;;;;;;;16.98;7.30;;;10.90;99.90;;;;;;5035273;28;20207;-79
2022/10/19 05:37:46;;;;;;;7.43;3.72;;;10.90;99.90;;;;;;5034738;28;20185;-78
2022/10/19 05:40:11;;;;;;;6.95;3.20;;;10.90;99.90;;;;;;5035580;28;20182;-77
2022/10/19 05:42:37;;;;;;;18.35;9.68;;;10.90;99.90;;;;;;5034141;28;20816;-78
2022/10/19 05:45:03;;;;;;;33.42;18.15;;;10.90;99.90;;;;;;5033343;28;20207;-77
2022/10/19 05:47:28;;;;;;;20.50;9.98;;;10.80;99.90;;;;;;5035301;28;20186;-79
2022/10/19 05:49:54;;;;;;;10.07;5.28;;;10.90;99.90;;;;;;5034780;28;20642;-78
2022/10/19 05:52:20;;;;;;;6.97;3.72;;;10.80;99.90;;;;;;5035064;28;20222;-78
2022/10/19 05:54:45;;;;;;;7.57;4.00;;;10.80;99.90;;;;;;5035610;28;20206;-78
2022/10/19 05:57:11;;;;;;;7.70;3.67;;;10.80;99.90;;;;;;5035234;28;20193;-78
2022/10/19 05:59:36;;;;;;;8.20;4.22;;;10.80;99.90;;;;;;5035157;28;20181;-77
2022/10/19 06:02:02;;;;;;;23.08;13.55;;;10.80;99.90;;;;;;5033636;28;20218;-78
2022/10/19 06:04:28;;;;;;;17.30;9.48;;;10.90;99.90;;;;;;5035338;28;20199;-78
2022/10/19 06:06:53;;;;;;;19.60;10.80;;;10.80;99.90;;;;;;5033415;28;20177;-78
2022/10/19 06:09:19;;;;;;;20.73;11.40;;;10.90;99.90;;;;;;5035694;28;20213;-78
2022/10/19 06:11:45;;;;;;;19.13;12.00;;;10.90;99.90;;;;;;5032073;28;20258;-78
2022/10/19 06:14:14;;;;;;;15.32;8.73;;;10.90;99.90;;;;;;5033898;28;20264;-78
2022/10/19 06:16:39;;;;;;;29.20;16.13;;;10.90;99.90;;;;;;5033431;28;20182;-78
2022/10/19 06:19:05;;;;;;;27.92;13.80;;;10.90;99.90;;;;;;5035385;28;20191;-78
2022/10/19 06:21:32;;;;;;;13.68;7.60;;;10.90;99.90;;;;;;5033463;28;20298;-79
2022/10/19 06:24:01;;;;;;;18.60;8.75;;;10.90;99.90;;;;;;5032359;28;20692;-78
2022/10/19 06:26:27;;;;;;;15.18;7.88;;;10.90;99.90;;;;;;5036112;28;20177;-78
2022/10/19 06:28:59;;;;;;;15.82;8.75;;;10.90;99.90;;;;;;5038036;28;20614;-77
2022/10/19 06:31:28;;;;;;;24.65;11.88;;;11.00;99.90;;;;;;5038639;28;20265;-79
2022/10/19 06:33:54;;;;;;;13.35;6.82;;;11.10;99.90;;;;;;5039175;28;20285;-77
2022/10/19 06:36:23;;;;;;;10.82;4.72;;;11.10;99.90;;;;;;5036473;28;20269;-77
2022/10/19 06:38:49;;;;;;;9.95;6.30;;;11.20;99.90;;;;;;5036992;28;20650;-79
2022/10/19 06:41:15;;;;;;;15.45;7.10;;;11.20;99.90;;;;;;5038146;28;20618;-78
2022/10/19 06:43:42;;;;;;;8.20;4.07;;;11.30;99.90;;;;;;5040069;28;20194;-77
2022/10/19 06:46:10;;;;;;;10.73;4.38;;;11.30;99.90;;;;;;5037724;28;20166;-79
2022/10/19 06:48:36;;;;;;;7.45;3.00;;;11.40;97.70;;;;;;5037971;28;20259;-77
2022/10/19 06:51:05;;;;;;;4.95;2.70;;;11.20;96.50;;;;;;5038128;28;20190;-78
2022/10/19 06:53:33;;;;;;;7.60;3.03;;;11.30;91.00;;;;;;5033653;28;20294;-81
2022/10/19 06:56:00;;;;;;;5.57;2.65;;;11.50;96.00;;;;;;5032978;28;20178;-81
2022/10/19 06:58:25;;;;;;;7.68;2.42;;;11.40;99.70;;;;;;5027283;28;20240;-80
2022/10/19 07:00:59;;;;;;;7.13;2.88;;;11.50;99.90;;;;;;5032454;28;20211;-80
2022/10/19 07:03:25;;;;;;;6.40;2.65;;;11.60;99.90;;;;;;5035076;28;20179;-81
2022/10/19 07:05:53;;;;;;;8.00;3.40;;;11.70;93.10;;;;;;5034663;28;20179;-80
2022/10/19 07:08:18;;;;;;;5.97;2.75;;;11.80;81.70;;;;;;5035885;28;20959;-82
2022/10/19 07:10:50;;;;;;;6.10;2.50;;;11.80;60.40;;;;;;5034306;28;20185;-81
2022/10/19 07:13:16;;;;;;;8.57;2.75;;;11.90;34.50;;;;;;5034702;28;20680;-82
2022/10/19 07:15:41;;;;;;;7.90;2.80;;;11.90;13.00;;;;;;5036017;28;20277;-79
2022/10/19 07:18:07;;;;;;;7.95;2.30;;;11.90;14.40;;;;;;5035497;28;20673;-81
2022/10/19 07:20:32;;;;;;;5.32;2.60;;;12.00;17.80;;;;;;5036489;28;20271;-81
2022/10/19 07:22:58;;;;;;;8.10;2.47;;;12.00;25.60;;;;;;5035662;28;20213;-82
2022/10/19 07:25:24;;;;;;;4.97;2.47;;;12.10;37.60;;;;;;5036151;28;20198;-81
2022/10/19 07:27:49;;;;;;;6.10;2.60;;;12.20;5.00;;;;;;5037359;28;20201;-81
2022/10/19 07:30:15;;;;;;;7.00;2.83;;;12.20;6.90;;;;;;5035160;28;20186;-81
2022/10/19 07:32:41;;;;;;;8.05;2.50;;;12.30;1.00;;;;;;5035337;28;20217;-81
2022/10/19 07:35:06;;;;;;;4.50;2.20;;;12.20;1.00;;;;;;5032476;28;20203;-81
2022/10/19 07:37:32;;;;;;;5.82;2.40;;;12.30;1.00;;;;;;5035688;28;20219;-81
2022/10/19 07:39:57;;;;;;;5.65;2.20;;;12.40;1.00;;;;;;5037136;28;20840;-81
2022/10/19 07:42:23;;;;;;;4.68;2.10;;;12.40;1.00;;;;;;5035397;28;20205;-81
2022/10/19 07:44:49;;;;;;;7.45;2.13;;;12.50;1.00;;;;;;5032832;28;20619;-80
2022/10/19 07:47:14;;;;;;;4.25;2.15;;;12.50;1.00;;;;;;5035031;28;20183;-80
2022/10/19 07:49:40;;;;;;;6.15;2.10;;;12.50;1.00;;;;;;5034954;28;20235;-81
2022/10/19 07:52:06;;;;;;;4.38;2.10;;;12.60;1.00;;;;;;5034660;28;20287;-81
2022/10/19 07:54:31;;;;;;;3.45;1.88;;;12.60;1.00;;;;;;5035101;28;20206;-79
2022/10/19 07:56:57;;;;;;;4.50;1.75;;;12.50;1.00;;;;;;5033035;28;20225;-77
2022/10/19 07:59:22;;;;;;;4.65;1.90;;;12.60;1.00;;;;;;5026631;28;20179;-80
2022/10/19 08:01:49;;;;;;;6.20;2.03;;;13.10;1.00;;;;;;5028368;28;20888;-80
2022/10/19 08:04:16;;;;;;;3.97;1.33;;;12.70;1.00;;;;;;5031675;28;20206;-81
2022/10/19 08:06:41;;;;;;;3.10;1.02;;;12.70;1.00;;;;;;5030586;28;20180;-81
2022/10/19 08:09:07;;;;;;;3.10;1.17;;;12.60;1.00;;;;;;5022529;28;20191;-82
2022/10/19 08:11:34;;;;;;;3.90;1.20;;;12.60;1.00;;;;;;5025297;28;20221;-83
2022/10/19 08:14:04;;;;;;;3.10;1.30;;;12.50;1.00;;;;;;5032217;28;20324;-81
2022/10/19 08:16:36;;;;;;;4.43;1.25;;;12.50;1.00;;;;;;5028411;28;20589;-81
2022/10/19 08:19:23;;;;;;;5.88;1.90;;;12.50;1.00;;;;;;5033204;28;20186;-80
2022/10/19 08:21:49;;;;;;;4.63;1.40;;;12.50;1.00;;;;;;5031546;28;20220;-79
2022/10/19 08:24:17;;;;;;;3.15;1.30;;;12.50;1.00;;;;;;5030915;28;20731;-79
2022/10/19 08:26:42;;;;;;;4.13;1.30;;;12.50;1.00;;;;;;5036623;28;20240;-79
2022/10/19 08:29:15;;;;;;;8.25;1.30;;;12.50;1.00;;;;;;5034602;28;20710;-78
2022/10/19 08:31:43;;;;;;;7.10;1.75;;;12.50;1.00;;;;;;5040786;28;20199;-80
2022/10/19 08:34:09;;;;;;;5.00;1.50;;;12.60;1.00;;;;;;5032959;28;20641;-80
2022/10/19 08:36:35;;;;;;;4.15;1.50;;;12.70;1.00;;;;;;5033154;28;20175;-80
2022/10/19 08:39:06;;;;;;;4.35;1.48;;;12.90;1.00;;;;;;5040833;28;20229;-79
2022/10/19 08:42:02;;;;;;;5.32;1.33;;;12.90;1.00;;;;;;5030768;28;20226;-80
2022/10/19 08:44:43;;;;;;;2.42;0.93;;;12.90;1.00;;;;;;5033935;28;20206;-80
2022/10/19 08:47:11;;;;;;;3.45;1.10;;;13.00;1.00;;;;;;5036358;28;20182;-79
2022/10/19 08:49:37;;;;;;;4.38;1.15;;;13.00;1.00;;;;;;5035193;28;20193;-79
2022/10/19 08:52:19;;;;;;;5.70;1.20;;;12.90;1.00;;;;;;5034175;28;20190;-80
2022/10/19 08:54:52;;;;;;;7.72;1.92;;;13.00;1.00;;;;;;5034291;28;20206;-80
2022/10/19 08:57:32;;;;;;;5.82;1.70;;;13.00;1.00;;;;;;5032595;28;20178;-80
2022/10/19 09:00:01;;;;;;;5.90;1.45;;;13.10;1.00;;;;;;5035443;28;20554;-79
2022/10/19 09:03:00;;;;;;;5.22;1.35;;;12.60;1.00;;;;;;5030653;28;20233;-80
2022/10/19 09:05:29;;;;;;;7.50;1.60;;;12.20;1.00;;;;;;5035033;28;20202;-81
2022/10/19 09:07:54;;;;;;;7.80;1.45;;;12.30;1.00;;;;;;5028254;28;20237;-79
2022/10/19 09:10:31;;;;;;;3.50;1.33;;;12.60;1.00;;;;;;5033215;28;20179;-79
2022/10/19 09:13:19;;;;;;;5.75;1.55;;;12.80;1.00;;;;;;5031608;28;20198;-79
2022/10/19 09:15:48;;;;;;;4.60;1.20;;;13.20;1.00;;;;;;5032126;28;20192;-79
2022/10/19 09:18:24;;;;;;;6.95;1.52;;;13.40;1.00;;;;;;5030679;28;20637;-80
2022/10/19 09:20:56;;;;;;;4.22;1.15;;;13.40;1.00;;;;;;5033791;28;20202;-80
2022/10/19 09:23:38;;;;;;;11.73;2.10;;;13.30;1.00;;;;;;5031253;28;20232;-79
2022/10/19 09:26:12;;;;;;;6.38;1.63;;;13.40;1.00;;;;;;5036626;28;20185;-79
2022/10/19 09:28:47;;;;;;;6.85;1.73;;;13.60;1.00;;;;;;5034505;28;20543;-83
2022/10/19 09:31:41;;;;;;;4.85;1.40;;;13.70;1.00;;;;;;5031930;28;20184;-81
2022/10/19 09:34:33;;;;;;;4.93;1.90;;;13.60;1.00;;;;;;5022365;28;20230;-84
2022/10/19 09:36:59;;;;;;;4.63;1.65;;;13.30;1.00;;;;;;5026754;28;20209;-81
2022/10/19 09:39:27;;;;;;;3.03;1.08;;;13.60;1.00;;;;;;5029320;28;20178;-82
2022/10/19 09:41:58;;;;;;;5.22;1.60;;;13.90;1.00;;;;;;5031904;28;20209;-84
2022/10/19 09:44:26;;;;;;;4.38;1.38;;;13.80;1.00;;;;;;5030816;28;20271;-84
2022/10/19 09:47:16;;;;;;;4.18;1.50;;;13.80;1.00;;;;;;5029356;28;20185;-81
2022/10/19 09:49:47;;;;;;;7.13;1.77;;;14.00;1.00;;;;;;5026119;28;20218;-82
2022/10/19 09:52:30;;;;;;;4.55;1.33;;;13.70;1.00;;;;;;5033221;28;20193;-81
2022/10/19 09:55:06;;;;;;;7.22;2.17;;;13.90;1.00;;;;;;5028982;28;20209;-81
2022/10/19 09:57:40;;;;;;;3.35;2.00;;;14.00;1.00;;;;;;5030513;28;20229;-81
2022/10/19 10:00:06;;;;;;;4.88;2.20;;;14.30;1.00;;;;;;5030286;28;20190;-81
2022/10/19 10:02:32;;;;;;;4.18;1.90;;;14.10;1.00;;;;;;5036686;28;20264;-84
2022/10/19 10:05:12;;;;;;;9.20;2.17;;;14.20;1.00;;;;;;5042379;28;20217;-85
2022/10/19 10:07:38;;;;;;;7.47;2.13;;;13.80;1.00;;;;;;5033873;28;20269;-82
2022/10/19 10:10:29;;;;;;;2.97;1.40;;;13.60;1.00;;;;;;5035807;28;20724;-80
2022/10/19 10:12:56;;;;;;;4.90;1.85;;;14.00;1.00;;;;;;5062296;22;20252;-83
2022/10/19 10:15:25;;;;;;;4.78;1.90;;;14.20;1.00;;;;;;5057174;28;20208;-82
2022/10/19 10:17:51;;;;;;;3.35;1.70;;;14.30;1.00;;;;;;5055548;28;20268;-81
2022/10/19 10:20:17;;;;;;;5.03;2.30;;;14.40;1.00;;;;;;5056561;28;20182;-83
2022/10/19 10:22:52;;;;;;;3.63;1.95;;;13.90;1.00;;;;;;5055044;28;20182;-83
2022/10/19 10:25:18;;;;;;;4.03;1.75;;;13.60;1.00;;;;;;5055681;28;20205;-85
2022/10/19 10:28:11;;;;;;;3.88;2.20;;;14.00;1.00;;;;;;5054228;28;20239;-85
2022/10/19 10:30:36;;;;;;;2.30;2.00;;;14.30;1.00;;;;;;5061724;28;20549;-85
2022/10/19 10:33:03;;;;;;;25.25;3.90;;;14.50;1.00;;;;;;5052593;28;20185;-85
2022/10/19 10:35:35;;;;;;;5.20;2.75;;;14.40;1.00;;;;;;5054044;28;20202;-84
2022/10/19 10:38:17;;;;;;;5.95;2.40;;;14.50;1.00;;;;;;5049218;28;20285;-85
2022/10/19 10:40:56;;;;;;;4.57;2.20;;;14.80;1.00;;;;;;5053470;28;20477;-84
2022/10/19 10:43:30;;;;;;;4.50;2.20;;;14.90;1.00;;;;;;5047667;28;20510;-83
2022/10/19 10:46:03;;;;;;;4.22;2.08;;;14.10;1.00;;;;;;5054297;28;20177;-82
2022/10/19 10:48:39;;;;;;;6.15;1.98;;;14.00;1.00;;;;;;5049399;28;20193;-82
2022/10/19 10:51:18;;;;;;;3.78;2.42;;;14.00;1.00;;;;;;5046898;28;20711;-82
2022/10/19 10:53:44;;;;;;;4.43;2.22;;;14.10;1.00;;;;;;5059551;28;20210;-83
2022/10/19 10:56:28;;;;;;;3.58;2.30;;;14.20;1.00;;;;;;5056840;28;20690;-83
2022/10/19 10:59:09;;;;;;;7.50;2.78;;;14.10;1.00;;;;;;5055245;28;20228;-82
2022/10/19 11:01:40;;;;;;;3.53;2.45;;;13.80;1.00;;;;;;5068546;28;20262;-83
2022/10/19 11:14:50;;;;;;;6.57;2.10;;;13.70;1.00;;;;;;5841287;22;20230;-85
2022/10/19 11:17:24;;;;;;;5.78;2.20;;;13.70;1.00;;;;;;5028644;28;20195;-85
2022/10/19 11:19:50;;;;;;;5.82;1.75;;;13.60;1.00;;;;;;5022227;28;20183;-85
2022/10/19 11:22:44;;;;;;;3.03;1.95;;;13.80;1.00;;;;;;5031469;28;20418;-85
2022/10/19 11:25:25;;;;;;;5.78;2.08;;;14.10;1.00;;;;;;5024099;28;20209;-85
2022/10/19 11:28:20;;;;;;;5.00;1.80;;;14.30;1.00;;;;;;5023567;28;20526;-85
2022/10/19 11:31:09;;;;;;;5.78;1.75;;;14.60;1.00;;;;;;5023527;28;20190;-84
2022/10/19 11:33:59;;;;;;;2.80;2.13;;;14.60;1.00;;;;;;5021340;28;20398;-84
2022/10/19 11:36:39;;;;;;;3.17;1.50;;;14.60;1.00;;;;;;5032223;28;20250;-84
2022/10/19 11:39:20;;;;;;;3.33;1.48;;;14.50;1.00;;;;;;5021468;28;20186;-85
2022/10/19 11:42:05;;;;;;;3.55;1.58;;;14.40;1.00;;;;;;5027172;28;20195;-85
2022/10/19 11:44:33;;;;;;;4.95;1.80;;;14.70;1.00;;;;;;5025384;28;20255;-85
2022/10/19 11:47:18;;;;;;;4.53;1.90;;;14.90;1.00;;;;;;5027441;28;20730;-83
2022/10/19 11:50:19;;;;;;;6.18;2.00;;;14.90;1.00;;;;;;5026416;28;20178;-85
2022/10/19 11:53:08;;;;;;;4.32;1.92;;;15.10;1.00;;;;;;5026102;28;20174;-85
2022/10/19 11:55:59;;;;;;;3.58;1.70;;;15.20;1.00;;;;;;5025971;28;20191;-85
2022/10/19 11:58:30;;;;;;;4.03;1.73;;;15.50;1.00;;;;;;5026310;28;20170;-85
2022/10/19 12:01:12;;;;;;;4.47;1.85;;;15.60;1.00;;;;;;5025911;28;20198;-85
2022/10/19 12:04:00;;;;;;;3.25;1.58;;;15.40;1.00;;;;;;5026008;28;20226;-86
2022/10/19 12:06:56;;;;;;;2.45;1.70;;;15.20;1.00;;;;;;5025933;28;20872;-86
2022/10/19 12:09:57;;;;;;;6.65;1.77;;;15.30;1.00;;;;;;5025800;28;20179;-85
2022/10/19 12:12:34;;;;;;;3.85;1.80;;;15.30;1.00;;;;;;5025257;28;21314;-87
2022/10/19 12:15:10;;;;;;;4.93;1.73;;;15.00;1.00;;;;;;5025085;28;20242;-87
2022/10/19 12:17:40;;;;;;;7.28;2.20;;;14.90;1.00;;;;;;5026826;28;20273;-87
2022/10/19 12:20:16;;;;;;;4.35;1.70;;;15.10;1.00;;;;;;5025779;28;20593;-87
2022/10/19 12:22:42;;;;;;;5.32;2.03;;;15.10;1.00;;;;;;5025355;28;20285;-87
2022/10/19 12:25:13;;;;;;;6.60;1.50;;;15.20;1.00;;;;;;5025245;28;20206;-86
2022/10/19 12:27:40;;;;;;;4.72;2.00;;;15.20;1.00;;;;;;5025611;28;20383;-87
2022/10/19 12:30:22;;;;;;;3.50;1.38;;;15.30;1.00;;;;;;5025283;28;20226;-87
2022/10/19 12:33:04;;;;;;;5.28;1.50;;;15.30;1.00;;;;;;5025090;28;20270;-87
2022/10/19 12:36:17;;;;;;;4.97;1.40;;;14.90;1.00;;;;;;5025463;28;20207;-87
2022/10/19 12:38:59;;;;;;;3.78;1.17;;;15.10;1.00;;;;;;4984005;28;20196;-88
2022/10/19 12:41:51;;;;;;;4.20;1.38;;;14.60;1.00;;;;;;5026177;28;20226;-86
2022/10/19 12:44:19;;;;;;;5.82;1.38;;;14.60;1.00;;;;;;5025868;28;20234;-87
2022/10/19 12:46:50;;;;;;;4.82;1.02;;;14.70;1.00;;;;;;5025447;28;20175;-88
2022/10/19 12:49:28;;;;;;;5.22;1.00;;;14.40;1.00;;;;;;5025237;28;20708;-86
2022/10/19 12:51:55;;;;;;;2.47;1.00;;;14.30;1.00;;;;;;5022014;28;20190;-87
2022/10/19 12:54:24;;;;;;;2.17;0.90;;;14.50;1.00;;;;;;5023405;28;20212;-84
2022/10/19 12:56:54;;;;;;;2.58;1.10;;;14.60;1.00;;;;;;5030907;28;20190;-86
2022/10/19 12:59:40;;;;;;;3.83;1.02;;;14.30;1.00;;;;;;5013839;28;20218;-87
2022/10/19 13:02:26;;;;;;;4.22;1.00;;;14.00;1.00;;;;;;5023136;28;20218;-87
2022/10/19 13:05:25;;;;;;;5.18;1.30;;;14.10;1.00;;;;;;5020934;28;20202;-87
2022/10/19 13:07:51;;;;;;;2.00;0.80;;;13.70;1.00;;;;;;5022240;28;20270;-86
2022/10/19 13:10:23;;;;;;;3.38;1.17;;;13.70;1.00;;;;;;5021805;28;20908;-86
2022/10/19 13:12:50;;;;;;;2.92;1.00;;;13.70;1.00;;;;;;5020429;28;20189;-85
2022/10/19 13:15:34;;;;;;;3.17;1.02;;;13.60;1.00;;;;;;5021435;28;20226;-86
2022/10/19 13:18:01;;;;;;;2.88;0.88;;;13.30;1.00;;;;;;5022407;28;20541;-87
2022/10/19 13:20:27;;;;;;;2.17;0.85;;;13.30;1.00;;;;;;5023147;28;20230;-87
2022/10/19 13:22:58;;;;;;;3.72;1.27;;;13.00;1.00;;;;;;5024801;28;20203;-86